• Join FlightAware (Why Join?)
  • Login
  • US Flag 
10:27PM EDT


 

Airport Tracker/Info


-or-


 

Live Flight TrackerFlight Track Log ✈ RPA3143 ✈ 18-Jul-2013 ✈ KPIT - KDCA

Flight Track Log - Related Links

Times and Time Zones

All times are in EDT time to prevent confusion due to time zone crossing. See the RPA3143 flight status page for this flight to view local times or setup timezone preferences in your user account.

Time Position Orientation Groundspeed Altitude Reporting Facility
EDT Latitude Longitude Course Direction KTS MPH feet Rate Location/Type
06:06AM 40.3077 -79.8583 164° South  Level Estimated
06:06AM 40.3964 -80.3406 120° Southeast 292 336 9,400  Level Cleveland Center
06:07AM 40.2462 -79.7338 162° South  Level Estimated
06:07AM 40.3253 -80.2972 155° Southeast 328 377 12,200  Level Cleveland Center
06:08AM 40.1846 -79.6096 161° South  Level Estimated
06:08AM 40.2397 -80.2486 157° South 333 383 14,300  Level Cleveland Center
06:09AM 40.0910 -79.6928 214° Southwest  Level FlightAware Approximate
06:09AM 40.1478 -80.1947 156° South 350 403 17,500  Level Cleveland Center
06:10AM 40.0457 -79.5915 120° Southeast  Level Estimated
06:10AM 40.0558 -80.1436 157° South 355 409 20,100  Level Cleveland Center
06:11AM 40.0002 -79.4902 120° Southeast  Level Estimated
06:11AM 39.9597 -80.0875 156° South 361 415 21,000  Level Cleveland Center
06:12AM 39.8658 -80.0342 156° South 366 421 21,000  Level Cleveland Center
06:13AM 39.7694 -79.9808 157° South 371 427 21,000  Level Cleveland Center
06:15AM 39.5589 -79.8633 157° South 371 427 21,000  Level Washington Center
06:16AM 39.4553 -79.8467 173° South 366 421 21,000  Level Washington Center
06:17AM 39.3519 -79.8217 169° South 372 428 21,000  Level Washington Center
06:18AM 39.2892 -79.7028 124° Southeast 358 412 21,000  Level Washington Center
06:19AM 39.2769 -79.5706 97° East 345 397 21,000  Level Washington Center
06:20AM 39.2647 -79.4386 97° East 350 403 21,000  Level Washington Center
06:21AM 39.2522 -79.3039 97° East 363 418 21,000  Level Washington Center
06:22AM 39.2392 -79.1853 98° East 373 429 21,000  Level Washington Center
06:23AM 39.2264 -79.0506 97° East 373 429 21,000  Level Washington Center
06:24AM 39.2156 -78.9161 96° East 373 429 21,000 -60 Level Washington Center
06:25AM 39.2025 -78.7869 97° East 373 429 20,900 -1,020 Descending Washington Center
06:26AM 39.1914 -78.6500 96° East 373 429 19,000 -1,920 Descending Washington Center
06:27AM 39.1800 -78.5183 96° East 373 429 17,000 -2,040 Descending Washington Center
06:28AM 39.1664 -78.3892 98° East 373 429 15,100 -1,020 Descending Washington Center
06:29AM 39.1381 -78.2650 106° East 373 429 15,000 -60 Descending Washington Center
06:30AM 39.1075 -78.1408 108° East 366 421 15,000  Level Washington Center
06:31AM 39.0764 -78.0222 109° East 361 415 15,000 -600 Level Washington Center
06:32AM 39.0456 -77.9008 108° East 361 415 13,900 -1,500 Descending Washington Center
06:33AM 39.0164 -77.7797 107° East 333 383 12,100 -1,680 Descending Washington Center
06:34AM 38.9911 -77.6881 110° East 310 357 10,600 -1,620 Descending Washington Center
06:35AM 38.9667 -77.6000 110° East 288 331 9,400 -1,500 Descending Potomac TRACON
06:36AM 38.9500 -77.5167 104° East 259 298 8,100 -1,020 Descending Potomac TRACON
06:37AM 38.9667 -77.4500 72° East 204 235 7,400 -1,080 Descending Potomac TRACON
06:38AM 38.9833 -77.3833 72° East 198 228 6,000 -1,200 Descending Potomac TRACON
06:39AM 39.0167 -77.3167 57° Northeast 195 224 5,100 -1,020 Descending Potomac TRACON
06:40AM 39.0000 -77.2500 108° East 198 228 4,100 -1,140 Descending Potomac TRACON
06:41AM 38.9833 -77.2000 113° Southeast 193 222 3,000 -1,140 Descending Potomac TRACON